Time;durP1;ratioP1;P1;durP2;ratioP2;P2;SDS_P1;SDS_P2;PMS_P1;PMS_P2;Temp;Humidity;BMP_temperature;BMP_pressure;BME280_temperature;BME280_humidity;BME280_pressure;Samples;Min_cycle;Max_cycle;Signal;HPM_P1;HPM_P2
2021/11/12 00:14:33;;;;;;;18.42;12.77;;;;;;;2.69;70.81;101139.97;4981081;28;20105;-21
2021/11/12 00:16:59;;;;;;;21.15;12.98;;;;;;;2.77;70.74;101135.66;5071115;28;20032;-21
2021/11/12 00:19:25;;;;;;;21.05;14.02;;;;;;;2.77;70.73;101148.84;5071078;28;20028;-21
2021/11/12 00:21:50;;;;;;;23.27;13.88;;;;;;;2.68;71.33;101140.97;5071061;28;20079;-22
2021/11/12 00:24:16;;;;;;;20.48;12.27;;;;;;;2.31;71.69;101124.09;5070548;28;20492;-21
2021/11/12 00:26:41;;;;;;;20.25;12.52;;;;;;;1.97;73.38;101142.06;5052948;28;20095;-21
2021/11/12 00:29:09;;;;;;;19.15;12.32;;;;;;;2.20;72.78;101137.38;5070777;28;20472;-21
2021/11/12 00:36:47;;;;;;;21.55;13.50;;;;;;;1.83;73.52;101108.25;5054177;28;20121;-21
2021/11/12 00:39:24;;;;;;;18.33;12.32;;;;;;;1.50;75.36;101132.13;5071177;28;20492;-21
2021/11/12 00:42:03;;;;;;;27.23;15.27;;;;;;;1.34;75.35;101118.66;5070583;28;20209;-21
2021/11/12 00:47:57;;;;;;;35.35;19.20;;;;;;;1.75;74.11;101107.13;5070524;28;20097;-21
2021/11/12 00:53:40;;;;;;;27.33;15.73;;;;;;;1.28;75.50;101122.63;5070625;28;20048;-21
2021/11/12 00:55:24;;;;;;;25.92;15.38;;;;;;;1.71;74.62;101097.03;5069694;28;20086;-21
2021/11/12 00:57:51;;;;;;;29.23;16.27;;;;;;;2.18;71.85;101086.66;5070171;28;20102;-21
2021/11/12 01:00:17;;;;;;;23.42;15.25;;;;;;;2.60;70.92;101112.69;5052026;28;20029;-21
2021/11/12 01:02:43;;;;;;;27.13;17.35;;;;;;;2.36;72.64;101106.06;5070367;28;20036;-22
2021/11/12 01:05:09;;;;;;;32.72;19.55;;;;;;;2.38;72.79;101104.13;5070392;28;20089;-21
2021/11/12 01:07:34;;;;;;;31.48;22.90;;;;;;;2.55;72.09;101104.38;5070561;28;20032;-21
2021/11/12 01:10:00;;;;;;;31.25;19.63;;;;;;;2.47;71.71;101091.09;5052221;28;20443;-21
2021/11/12 01:12:26;;;;;;;31.98;19.42;;;;;;;2.91;70.26;101094.88;5069868;28;20059;-21
2021/11/12 01:14:52;;;;;;;28.00;18.58;;;;;;;2.00;72.80;101071.59;5069657;28;20557;-21
2021/11/12 01:17:17;;;;;;;28.30;19.27;;;;;;;1.52;75.79;101096.00;5051905;28;20086;-21
2021/11/12 01:19:43;;;;;;;29.92;18.38;;;;;;;1.28;76.14;101079.75;5069901;28;20068;-21
2021/11/12 01:22:08;;;;;;;32.25;19.05;;;;;;;1.11;76.76;101082.06;5051602;28;20032;-21
2021/11/12 01:24:35;;;;;;;26.02;17.80;;;;;;;1.05;76.66;101072.06;5069852;28;20032;-21
2021/11/12 01:27:01;;;;;;;34.88;20.65;;;;;;;1.40;76.24;101076.06;5069667;28;20029;-21
2021/11/12 01:29:26;;;;;;;34.83;22.95;;;;;;;1.98;74.74;101084.06;5069776;28;20106;-21
2021/11/12 01:31:52;;;;;;;35.83;21.70;;;;;;;2.29;73.27;101062.84;5069637;28;20484;-21
2021/11/12 01:34:18;;;;;;;34.72;21.58;;;;;;;2.53;72.63;101086.06;5051626;28;20032;-21
2021/11/12 01:36:45;;;;;;;33.50;21.35;;;;;;;2.29;72.51;101083.06;5051653;28;20028;-21
2021/11/12 01:39:18;;;;;;;38.47;23.20;;;;;;;2.15;73.21;101074.63;5069407;28;20089;-21
2021/11/12 01:41:52;;;;;;;36.55;21.88;;;;;;;1.99;73.22;101072.53;5069599;28;20024;-21
2021/11/12 01:44:27;;;;;;;31.45;19.95;;;;;;;1.59;74.61;101070.84;5069161;28;20112;-21
2021/11/12 01:49:27;;;;;;;;;;;;;;;2.52;70.57;101073.06;5052372;28;20038;-21
2021/11/12 01:59:51;;;;;;;35.35;21.42;;;;;;;2.15;71.62;101064.09;5069233;28;20043;-21
2021/11/12 02:02:17;;;;;;;38.53;22.15;;;;;;;2.09;71.80;101066.47;5034537;28;20033;-21
2021/11/12 02:04:42;;;;;;;37.97;21.88;;;;;;;1.47;74.06;101044.81;5068998;28;20035;-21
2021/11/12 02:07:08;;;;;;;32.80;18.95;;;;;;;1.02;75.37;101029.47;5051036;28;20115;-21
2021/11/12 02:09:33;;;;;;;28.52;18.83;;;;;;;1.14;76.21;101055.50;5068862;28;20115;-21
2021/11/12 02:12:05;;;;;;;25.15;16.88;;;;;;;1.01;76.02;101054.91;5068676;28;20060;-21
2021/11/12 02:14:32;;;;;;;27.17;17.10;;;;;;;0.92;76.27;101043.41;5051284;28;20536;-21
2021/11/12 02:17:11;;;;;;;29.67;18.10;;;;;;;1.15;75.81;101051.91;5050821;28;20036;-21
2021/11/12 02:19:37;;;;;;;33.63;19.88;;;;;;;1.15;75.42;101045.84;5069182;28;20039;-21
2021/11/12 02:22:11;;;;;;;33.65;19.92;;;;;;;1.80;73.53;101049.69;5050446;28;20178;-21
2021/11/12 02:24:44;;;;;;;31.70;18.95;;;;;;;1.48;73.71;101036.78;5068805;28;20040;-21
2021/11/12 02:27:12;;;;;;;30.77;19.05;;;;;;;1.64;73.46;101045.97;5068706;28;20056;-21
2021/11/12 02:29:43;;;;;;;;;;;;;;;1.71;73.05;101054.94;5069089;28;20037;-21
2021/11/12 02:32:20;;;;;;;32.67;19.48;;;;;;;1.16;74.77;101019.41;5068276;28;20312;-21
2021/11/12 02:34:47;;;;;;;31.30;17.25;;;;;;;1.07;75.04;101053.56;5068778;28;20384;-20
2021/11/12 02:37:13;;;;;;;25.42;15.88;;;;;;;0.71;75.74;101027.69;5068484;28;20033;-21
2021/11/12 02:39:39;;;;;;;24.30;16.65;;;;;;;0.60;76.02;101046.16;5068381;28;20403;-23
2021/11/12 02:42:05;;;;;;;27.75;17.35;;;;;;;0.63;76.30;101045.88;5068818;28;20029;-21
2021/11/12 02:44:34;;;;;;;28.60;17.77;;;;;;;0.82;75.52;101044.31;5068191;28;20028;-21
2021/11/12 02:46:59;;;;;;;27.35;17.65;;;;;;;1.05;74.56;101040.53;5068441;28;20492;-21
2021/11/12 02:49:25;;;;;;;30.27;18.98;;;;;;;1.52;73.00;101035.53;5068743;28;20042;-21
2021/11/12 02:51:50;;;;;;;28.85;18.45;;;;;;;0.95;74.69;101045.75;5068282;28;20039;-21
2021/11/12 02:54:16;;;;;;;32.65;20.63;;;;;;;1.48;74.00;101039.41;5068095;28;20071;-20
2021/11/12 02:56:41;;;;;;;37.72;21.52;;;;;;;1.82;72.57;101023.28;5068591;28;20040;-21
2021/11/12 02:59:09;;;;;;;32.58;21.10;;;;;;;1.34;72.85;101022.22;5068265;28;20055;-21
2021/11/12 03:01:36;;;;;;;34.83;19.75;;;;;;;1.10;74.29;101030.47;5068194;28;20035;-21
2021/11/12 03:04:03;;;;;;;30.67;19.95;;;;;;;0.93;75.22;101025.84;5068237;28;20037;-21
2021/11/12 03:06:28;;;;;;;33.58;21.35;;;;;;;1.05;74.94;101014.28;5068482;28;20029;-21
2021/11/12 03:08:57;;;;;;;32.20;20.80;;;;;;;0.92;75.79;101025.03;5068013;28;20028;-21
2021/11/12 03:11:22;;;;;;;32.30;19.73;;;;;;;0.62;76.22;101015.34;5068339;28;20045;-21
2021/11/12 03:13:49;;;;;;;33.05;18.95;;;;;;;0.22;76.48;100995.09;5049936;28;20139;-20
2021/11/12 03:16:15;;;;;;;35.67;18.10;;;;;;;0.34;77.30;101004.56;5067988;28;20047;-21
2021/11/12 03:18:41;;;;;;;29.25;18.77;;;;;;;1.03;74.11;100997.00;5068015;28;20075;-21
2021/11/12 03:21:07;;;;;;;33.90;20.73;;;;;;;1.16;74.08;101014.16;5050159;28;20024;-21
2021/11/12 03:23:38;;;;;;;30.75;19.98;;;;;;;1.00;75.68;101021.72;5051102;28;20037;-21
2021/11/12 03:29:05;;;;;;;33.65;20.50;;;;;;;1.02;75.29;101005.81;5071728;28;20499;-21
2021/11/12 04:01:45;;;;;;;41.75;24.70;;;;;;;1.89;74.04;100984.09;5056063;28;20081;-21
2021/11/12 04:50:00;;;;;;;54.67;29.02;;;;;;;2.01;72.56;100957.47;5070427;28;20055;-21
2021/11/12 05:13:52;;;;;;;50.53;28.95;;;;;;;1.49;75.64;100964.88;5070050;28;20051;-21
2021/11/12 05:25:50;;;;;;;53.03;31.58;;;;;;;1.52;76.36;100979.53;5069379;28;20086;-22
2021/11/12 05:43:57;;;;;;;47.03;29.30;;;;;;;2.04;75.26;100964.25;5069468;28;20082;-21
2021/11/12 05:46:39;;;;;;;49.58;28.90;;;;;;;2.08;75.20;100975.34;5068389;28;20040;-21
2021/11/12 05:57:07;;;;;;;39.55;25.88;;;;;;;1.08;76.46;100944.88;5069536;28;20128;-21
2021/11/12 05:59:33;;;;;;;47.90;27.27;;;;;;;1.36;76.73;100949.34;5051325;28;20028;-21
2021/11/12 06:01:58;;;;;;;46.92;29.27;;;;;;;1.56;76.50;100970.38;5069055;28;20099;-21
2021/11/12 06:04:24;;;;;;;47.97;28.83;;;;;;;1.34;77.12;100958.34;5051233;28;20101;-21
2021/11/12 06:06:49;;;;;;;44.83;28.10;;;;;;;1.47;76.76;100977.31;5069491;28;20032;-22
2021/11/12 06:09:15;;;;;;;50.38;28.63;;;;;;;1.40;77.81;100976.19;5069270;28;20025;-21
2021/11/12 06:11:42;;;;;;;49.38;28.63;;;;;;;1.84;76.96;100974.00;5051037;28;20139;-21
2021/11/12 06:14:08;;;;;;;45.85;29.10;;;;;;;2.28;76.42;100971.69;5068283;28;20117;-22
2021/11/12 06:16:33;;;;;;;42.08;27.33;;;;;;;2.04;76.03;100980.03;5068926;28;20041;-21
2021/11/12 06:18:59;;;;;;;46.17;28.02;;;;;;;2.17;77.73;100975.31;5050791;28;20033;-21
2021/11/12 06:21:24;;;;;;;46.60;29.70;;;;;;;2.35;76.53;100985.94;5068883;28;20036;-21
2021/11/12 06:23:50;;;;;;;44.28;28.27;;;;;;;2.56;75.66;100959.41;5068736;28;20419;-21
2021/11/12 06:26:15;;;;;;;47.58;28.75;;;;;;;2.65;76.58;100977.94;5068609;28;20029;-21
2021/11/12 06:28:41;;;;;;;48.55;28.42;;;;;;;2.60;77.02;100965.22;5050695;28;20029;-21
2021/11/12 06:31:06;;;;;;;42.85;27.33;;;;;;;2.79;77.18;100975.66;5068410;28;20078;-21
2021/11/12 06:33:32;;;;;;;41.78;28.08;;;;;;;2.96;76.64;100973.22;5068667;28;20480;-21
2021/11/12 06:35:57;;;;;;;43.08;26.55;;;;;;;3.02;76.61;100967.38;5068525;28;20024;-21
2021/11/12 06:38:28;;;;;;;44.58;28.75;;;;;;;2.77;76.74;100967.06;5067943;28;20071;-21
2021/11/12 06:40:54;;;;;;;45.25;27.85;;;;;;;3.05;77.04;100975.00;5051686;28;20305;-21
2021/11/12 06:51:14;;;;;;;41.75;27.13;;;;;;;3.46;76.82;100969.31;5068356;28;20040;-21
2021/11/12 06:53:40;;;;;;;37.42;24.60;;;;;;;3.42;76.17;100966.16;5050766;28;20032;-21
2021/11/12 06:56:05;;;;;;;41.70;25.83;;;;;;;3.35;76.76;100955.38;5068316;28;20105;-21
2021/11/12 06:58:31;;;;;;;38.03;25.02;;;;;;;3.58;76.55;100966.31;5049712;28;20035;-21
2021/11/12 07:00:56;;;;;;;42.97;24.88;;;;;;;3.51;76.73;100967.88;5068159;28;20085;-21
2021/11/12 07:03:23;;;;;;;36.72;23.25;;;;;;;3.40;76.71;100952.28;5068279;28;20116;-21
2021/11/12 07:05:49;;;;;;;36.63;24.98;;;;;;;3.55;77.55;100956.03;5068314;28;20115;-21
2021/11/12 07:08:15;;;;;;;37.30;24.52;;;;;;;3.66;77.09;100936.53;5067978;28;20480;-21
2021/11/12 07:10:40;;;;;;;31.45;20.25;;;;;;;3.74;75.68;100954.22;5067989;28;20078;-21
2021/11/12 07:13:06;;;;;;;35.75;23.30;;;;;;;3.93;77.27;100961.97;5067707;28;20056;-21
2021/11/12 07:15:31;;;;;;;36.78;23.48;;;;;;;3.94;76.66;100931.13;5068082;28;20056;-21
2021/11/12 07:17:57;;;;;;;31.15;21.17;;;;;;;4.24;75.90;100950.97;5067956;28;20024;-21
2021/11/12 07:20:22;;;;;;;35.90;21.95;;;;;;;4.20;75.05;100945.16;5067896;28;20028;-21
2021/11/12 07:22:48;;;;;;;32.00;21.23;;;;;;;4.15;75.38;100952.72;5067939;28;20066;-21
2021/11/12 07:25:13;;;;;;;32.25;22.05;;;;;;;4.06;76.26;100929.88;5068154;28;20028;-21
2021/11/12 07:27:39;;;;;;;33.88;21.90;;;;;;;4.33;75.81;100943.91;5067989;28;20028;-21
2021/11/12 07:30:07;;;;;;;38.20;25.08;;;;;;;4.73;76.75;100943.28;5067817;28;20085;-21
2021/11/12 07:32:32;;;;;;;31.60;21.13;;;;;;;4.75;74.60;100945.78;5050023;28;20477;-21
2021/11/12 07:34:58;;;;;;;30.05;20.55;;;;;;;4.88;74.58;100937.41;5067904;28;20521;-21
2021/11/12 07:37:27;;;;;;;26.15;18.83;;;;;;;5.09;73.83;100935.16;5067887;28;20040;-20
2021/11/12 07:39:53;;;;;;;29.00;20.52;;;;;;;5.30;72.65;100939.16;5067986;28;20028;-21
2021/11/12 07:42:35;;;;;;;29.45;18.75;;;;;;;5.52;72.18;100932.44;5067490;28;20106;-21
2021/11/12 07:45:07;;;;;;;25.83;18.20;;;;;;;5.52;72.04;100913.91;5067564;28;20388;-21
2021/11/12 07:47:33;;;;;;;25.38;17.17;;;;;;;5.41;73.25;100938.84;5067659;28;20024;-21
2021/11/12 07:50:00;;;;;;;26.02;18.13;;;;;;;5.72;71.48;100925.81;5067658;28;20408;-21
2021/11/12 07:52:28;;;;;;;24.80;17.85;;;;;;;6.15;71.03;100936.19;5067570;28;20032;-21
2021/11/12 07:54:54;;;;;;;25.35;16.95;;;;;;;6.01;70.82;100929.78;5067896;28;20029;-21
2021/11/12 07:57:20;;;;;;;25.33;16.20;;;;;;;6.33;70.43;100943.94;5067552;28;20710;-21
2021/11/12 07:59:45;;;;;;;25.58;17.42;;;;;;;6.39;69.92;100930.84;5067765;28;20472;-21
2021/11/12 08:02:14;;;;;;;24.80;16.85;;;;;;;6.56;68.39;100912.25;5067472;28;20631;-21
2021/11/12 08:04:39;;;;;;;26.05;18.42;;;;;;;6.40;69.85;100923.75;5067598;28;20024;-21
2021/11/12 08:07:05;;;;;;;25.95;17.65;;;;;;;6.70;69.67;100913.34;5067772;28;20028;-21
2021/11/12 08:09:37;;;;;;;23.15;15.68;;;;;;;7.12;67.92;100915.63;5068309;28;20081;-21
2021/11/12 08:12:05;;;;;;;22.27;15.73;;;;;;;7.28;66.53;100905.91;5071352;28;20058;-22
2021/11/12 08:24:52;;;;;;;27.77;18.30;;;;;;;7.54;66.55;100910.84;5070747;28;20093;-21
2021/11/12 08:40:52;;;;;;;24.88;18.42;;;;;;;8.41;62.89;100902.41;5053617;28;20141;-21
2021/11/12 08:43:29;;;;;;;24.40;17.33;;;;;;;8.56;63.13;100910.34;5070589;28;20029;-23
2021/11/12 08:48:35;;;;;;;25.48;16.58;;;;;;;9.01;61.43;100913.75;5052304;28;20040;-21
2021/11/12 08:51:00;;;;;;;23.25;17.17;;;;;;;9.14;60.57;100908.59;5070683;28;20110;-21
2021/11/12 08:53:26;;;;;;;23.95;17.08;;;;;;;9.11;61.83;100906.31;5070993;28;20389;-21
2021/11/12 08:55:51;;;;;;;29.23;17.98;;;;;;;8.91;62.13;100907.91;5070429;28;20036;-21
2021/11/12 08:58:17;;;;;;;23.80;17.50;;;;;;;9.16;59.91;100903.91;5070199;28;20078;-21
2021/11/12 09:00:42;;;;;;;25.08;17.73;;;;;;;9.20;60.94;100897.19;5070116;28;20043;-21
2021/11/12 09:03:08;;;;;;;22.45;16.77;;;;;;;9.65;60.07;100900.47;5070418;28;20457;-21
2021/11/12 09:05:34;;;;;;;25.27;16.75;;;;;;;9.47;59.56;100896.63;5070567;28;20111;-21
2021/11/12 09:08:00;;;;;;;24.13;16.33;;;;;;;9.76;58.65;100898.31;5070401;28;20111;-21
2021/11/12 09:10:26;;;;;;;28.65;17.90;;;;;;;10.03;60.36;100894.84;5069746;28;20029;-21
2021/11/12 09:12:59;;;;;;;25.70;17.60;;;;;;;10.05;60.12;100882.13;5069926;28;20504;-21
2021/11/12 09:15:28;;;;;;;29.40;17.77;;;;;;;10.43;57.25;100891.59;5070120;28;20539;-21
2021/11/12 09:17:54;;;;;;;31.80;21.23;;;;;;;10.67;55.04;100882.28;5070213;28;20028;-21
2021/11/12 09:20:20;;;;;;;25.83;18.88;;;;;;;10.61;57.24;100870.56;5069755;28;20143;-21
2021/11/12 09:22:46;;;;;;;22.52;15.75;;;;;;;10.96;57.12;100880.31;5069748;28;20488;-21
2021/11/12 09:25:12;;;;;;;23.73;16.95;;;;;;;10.95;56.68;100884.00;5069695;28;20082;-21
2021/11/12 09:27:37;;;;;;;23.45;16.10;;;;;;;11.01;56.18;100867.16;5069503;28;20036;-20
2021/11/12 09:30:08;;;;;;;21.70;16.80;;;;;;;10.86;58.08;100873.50;5069488;28;20377;-21
2021/11/12 09:32:34;;;;;;;23.70;16.00;;;;;;;11.09;55.94;100875.00;5069369;28;20433;-21
2021/11/12 09:34:59;;;;;;;24.73;16.23;;;;;;;11.35;55.12;100862.72;5069671;28;20090;-21
2021/11/12 09:37:25;;;;;;;23.17;16.00;;;;;;;11.35;53.92;100857.38;5069195;28;20481;-22
2021/11/12 09:39:56;;;;;;;23.35;17.27;;;;;;;11.37;57.13;100855.31;5069265;28;20028;-22
2021/11/12 09:42:23;;;;;;;23.00;16.52;;;;;;;11.93;54.99;100849.59;5069203;28;20036;-21
2021/11/12 09:44:48;;;;;;;24.13;15.73;;;;;;;12.21;52.59;100845.78;5069372;28;20887;-21
2021/11/12 09:47:16;;;;;;;23.52;15.98;;;;;;;12.14;54.52;100861.06;5051739;28;20032;-21
2021/11/12 09:49:42;;;;;;;21.33;15.27;;;;;;;12.26;52.47;100851.34;5069542;28;20119;-21
2021/11/12 09:52:10;;;;;;;20.45;14.20;;;;;;;11.89;55.36;100837.66;5069079;28;20038;-21
2021/11/12 09:54:36;;;;;;;21.77;14.70;;;;;;;12.20;52.78;100838.81;5069349;28;20041;-21
2021/11/12 09:57:01;;;;;;;17.67;13.00;;;;;;;12.25;52.87;100842.47;5069349;28;20067;-21
2021/11/12 09:59:32;;;;;;;15.00;11.57;;;;;;;12.55;51.93;100830.44;5051264;28;20029;-21
2021/11/12 10:01:58;;;;;;;17.02;12.25;;;;;;;12.39;51.76;100832.56;5069140;28;20107;-21
2021/11/12 10:04:23;;;;;;;18.00;12.48;;;;;;;12.50;51.74;100827.59;5068978;28;20032;-21
2021/11/12 10:06:49;;;;;;;15.10;10.85;;;;;;;12.83;50.17;100822.03;5068959;28;20442;-20
2021/11/12 10:09:15;;;;;;;17.50;10.82;;;;;;;12.99;49.18;100815.38;5068955;28;20032;-21
2021/11/12 10:11:52;;;;;;;17.40;11.50;;;;;;;12.58;53.38;100805.94;5069085;28;20055;-20
2021/11/12 10:14:25;;;;;;;14.50;10.35;;;;;;;13.11;50.54;100815.50;5050572;28;20060;-20
2021/11/12 10:16:55;;;;;;;17.33;12.40;;;;;;;13.24;50.61;100797.47;5068888;28;20067;-21
2021/11/12 10:19:22;;;;;;;15.93;10.65;;;;;;;13.06;51.08;100806.25;5068876;28;20577;-22
2021/11/12 10:21:58;;;;;;;18.70;12.38;;;;;;;13.12;50.83;100809.09;5068615;28;20484;-21
2021/11/12 10:24:27;;;;;;;16.50;11.60;;;;;;;13.54;48.47;100788.78;5068475;28;20041;-20
2021/11/12 10:27:07;;;;;;;17.13;11.73;;;;;;;13.74;49.23;100796.63;5051100;28;20033;-21
2021/11/12 10:29:35;;;;;;;16.63;10.90;;;;;;;14.36;49.14;100785.00;5068607;28;20112;-29
2021/11/12 10:32:02;;;;;;;;;;;;;;;14.55;48.35;100785.78;5068692;28;20435;-21
2021/11/12 10:34:33;;;;;;;14.32;10.10;;;;;;;14.29;47.31;100777.03;5068305;28;19912;-21
2021/11/12 10:37:03;;;;;;;15.38;11.15;;;;;;;13.49;49.27;100783.28;5068743;28;20051;-20
2021/11/12 10:39:31;;;;;;;16.38;10.85;;;;;;;14.60;46.42;100757.22;5068580;28;20082;-20
2021/11/12 10:41:57;;;;;;;16.58;11.10;;;;;;;15.25;46.58;100775.25;5050691;28;20032;-20
2021/11/12 10:44:22;;;;;;;26.60;16.17;;;;;;;14.79;45.52;100765.22;5068191;28;20033;-20
2021/11/12 10:46:48;;;;;;;16.27;12.02;;;;;;;15.45;45.78;100768.72;5068508;28;20076;-21
2021/11/12 10:49:29;;;;;;;15.07;10.57;;;;;;;15.26;44.95;100754.56;5068283;28;20388;-20
2021/11/12 10:51:57;;;;;;;13.43;10.32;;;;;;;15.20;43.95;100759.00;5068269;28;20040;-20
2021/11/12 10:54:47;;;;;;;14.07;10.65;;;;;;;15.97;42.71;100755.34;5068097;28;20054;-20
2021/11/12 10:57:13;;;;;;;16.73;11.35;;;;;;;16.72;40.27;100760.81;5068296;28;20048;-21
2021/11/12 10:59:52;;;;;;;13.63;9.82;;;;;;;17.03;41.51;100757.56;5068157;28;20115;-21
2021/11/12 11:02:28;;;;;;;16.08;10.95;;;;;;;16.94;41.85;100753.66;5068330;28;20032;-21
2021/11/12 11:04:56;;;;;;;21.23;13.40;;;;;;;17.08;40.94;100743.38;5068209;28;20021;-20
2021/11/12 11:07:25;;;;;;;14.63;9.32;;;;;;;17.15;40.71;100738.63;5068109;28;20064;-21
2021/11/12 11:09:53;;;;;;;11.90;9.20;;;;;;;17.13;41.29;100738.06;5068054;28;20032;-21
2021/11/12 11:12:39;;;;;;;17.05;10.65;;;;;;;17.13;39.84;100724.59;5067994;28;20036;-21
2021/11/12 11:15:28;;;;;;;14.88;10.25;;;;;;;16.81;41.26;100741.31;5067818;28;20052;-21
2021/11/12 11:18:07;;;;;;;10.82;7.65;;;;;;;16.46;42.60;100739.59;5067914;28;20045;-20
2021/11/12 11:20:33;;;;;;;9.25;6.28;;;;;;;16.28;41.55;100737.09;5050846;28;20039;-21
2021/11/12 11:23:00;;;;;;;15.75;10.48;;;;;;;16.80;40.30;100725.38;5068094;28;20163;-21
2021/11/12 11:25:27;;;;;;;11.93;7.72;;;;;;;17.16;43.05;100724.13;5067942;28;20029;-21
2021/11/12 11:27:55;;;;;;;11.00;7.28;;;;;;;17.64;39.07;100736.09;5067806;28;20111;-22
2021/11/12 11:30:21;;;;;;;12.98;9.63;;;;;;;17.80;39.30;100728.22;5067568;28;20035;-21
2021/11/12 11:32:46;;;;;;;13.98;9.50;;;;;;;18.22;38.11;100736.56;5068237;28;20033;-21
2021/11/12 11:35:21;;;;;;;16.75;9.20;;;;;;;18.53;37.32;100714.44;5068150;28;20036;-20
2021/11/12 11:37:51;;;;;;;11.10;7.22;;;;;;;18.61;35.64;100716.69;5049918;28;20025;-20
2021/11/12 11:40:16;;;;;;;11.75;8.05;;;;;;;18.42;37.37;100719.75;5049948;28;20064;-21
2021/11/12 11:42:42;;;;;;;17.55;11.13;;;;;;;18.81;36.47;100730.41;5033224;28;20056;-20
2021/11/12 11:45:10;;;;;;;10.77;7.47;;;;;;;18.73;37.01;100727.34;5069839;28;20032;-21
2021/11/12 11:47:36;;;;;;;11.50;8.77;;;;;;;18.39;36.75;100714.06;5071668;28;20537;-21
2021/11/12 11:50:02;;;;;;;11.15;6.85;;;;;;;18.37;37.35;100722.41;5071719;28;20036;-21
2021/11/12 11:52:28;;;;;;;14.05;8.90;;;;;;;18.34;36.59;100717.50;5070374;28;20036;-21
2021/11/12 11:54:54;;;;;;;28.50;16.95;;;;;;;18.48;36.76;100713.34;5036241;28;20036;-20
2021/11/12 11:57:23;;;;;;;28.20;13.48;;;;;;;18.51;37.41;100711.19;5071460;28;20024;-20
2021/11/12 11:59:49;;;;;;;41.05;26.92;;;;;;;19.27;35.90;100702.91;5053662;28;20090;-21
2021/11/12 12:02:21;;;;;;;19.48;12.40;;;;;;;19.57;35.34;100712.25;5071114;28;20114;-20
2021/11/12 12:04:50;;;;;;;10.05;7.55;;;;;;;18.58;36.38;100712.63;5071259;28;20025;-20
2021/11/12 12:07:21;;;;;;;10.98;6.65;;;;;;;18.95;36.19;100716.47;5071370;28;20024;-20
2021/11/12 12:10:07;;;;;;;290.92;127.90;;;;;;;19.18;34.91;100710.69;5071510;28;20094;-21
2021/11/12 12:12:35;;;;;;;13.27;6.47;;;;;;;19.33;35.80;100712.69;5070946;28;20037;-22
2021/11/12 12:15:04;;;;;;;11.93;7.30;;;;;;;19.76;34.64;100715.38;5071447;28;20583;-20
2021/11/12 12:17:36;;;;;;;12.60;6.85;;;;;;;19.67;35.29;100701.47;5071156;28;20504;-20
2021/11/12 13:21:46;;;;;;;44.30;26.92;;;;;;;24.52;27.19;100705.78;5070038;28;20108;-21
2021/11/12 13:24:31;;;;;;;32.38;21.85;;;;;;;24.62;26.95;100689.25;5069998;28;20062;-20
2021/11/12 13:27:04;;;;;;;12.02;6.75;;;;;;;24.40;27.30;100704.28;5069982;28;20025;-20
2021/11/12 13:29:30;;;;;;;11.43;5.72;;;;;;;23.79;27.51;100707.88;5069926;28;20024;-21
2021/11/12 13:32:00;;;;;;;11.02;6.72;;;;;;;24.55;27.22;100691.56;5069906;28;20052;-20
2021/11/12 13:34:27;;;;;;;8.85;6.10;;;;;;;23.58;28.25;100691.75;5069684;28;20036;-20
2021/11/12 13:36:53;;;;;;;9.90;6.15;;;;;;;24.06;28.13;100697.16;5069638;28;20063;-20
2021/11/12 13:39:19;;;;;;;8.07;5.40;;;;;;;24.06;28.23;100693.63;5069582;28;20051;-20
2021/11/12 13:42:02;;;;;;;8.43;5.97;;;;;;;23.92;27.90;100701.69;5069427;28;20028;-21
2021/11/12 13:44:30;;;;;;;8.18;5.90;;;;;;;23.90;28.06;100698.47;5069478;28;20043;-21
2021/11/12 13:47:07;;;;;;;9.82;6.10;;;;;;;22.67;29.58;100700.50;5069393;28;20040;-21
2021/11/12 13:49:43;;;;;;;;;;;;;;;21.69;31.60;100704.06;5069928;28;20028;-20
2021/11/12 13:52:10;;;;;;;9.75;5.50;;;;;;;20.56;33.41;100704.19;5069451;28;20451;-20
2021/11/12 13:54:40;;;;;;;10.10;6.28;;;;;;;19.76;35.62;100689.13;5069470;28;20031;-20
2021/11/12 13:57:16;;;;;;;9.82;6.07;;;;;;;18.34;38.76;100695.91;5069414;28;20028;-20
2021/11/12 14:00:01;;;;;;;9.70;6.50;;;;;;;17.24;41.21;100704.81;5069254;28;20029;-20
2021/11/12 14:02:28;;;;;;;10.35;6.43;;;;;;;16.45;42.54;100686.81;5052076;28;20051;-21
2021/11/12 14:04:54;;;;;;;10.50;6.80;;;;;;;16.43;42.78;100693.53;5069275;28;20035;-21
2021/11/12 14:07:21;;;;;;;10.73;7.20;;;;;;;15.91;43.50;100697.09;5068520;28;20103;-20
2021/11/12 14:10:01;;;;;;;9.82;6.30;;;;;;;15.15;44.76;100670.22;5068973;28;20033;-21
2021/11/12 14:12:28;;;;;;;8.73;6.18;;;;;;;15.09;46.12;100698.00;5068560;28;20135;-21
2021/11/12 14:15:30;;;;;;;10.68;6.68;;;;;;;14.98;46.49;100698.84;5068752;28;20059;-20
2021/11/12 14:21:21;;;;;;;12.63;6.50;;;;;;;14.46;47.65;100685.97;5057934;28;20140;-20
2021/11/12 14:29:09;;;;;;;12.43;8.35;;;;;;;14.15;49.69;100679.81;5068648;28;20474;-21
2021/11/12 14:39:51;;;;;;;15.52;9.60;;;;;;;14.64;48.67;100675.19;5068395;28;20472;-20
2021/11/12 14:45:18;;;;;;;14.73;9.45;;;;;;;14.80;48.69;100689.81;5068361;28;20102;-20
2021/11/12 14:48:09;;;;;;;14.80;9.77;;;;;;;14.65;47.92;100681.41;5068434;28;20518;-21
2021/11/12 14:53:55;;;;;;;14.20;9.60;;;;;;;14.56;49.03;100686.25;5068395;28;20032;-21
2021/11/12 14:56:05;;;;;;;13.32;8.93;;;;;;;14.57;49.27;100697.84;5053806;28;20151;-21
2021/11/12 14:58:31;;;;;;;15.93;10.52;;;;;;;14.16;50.00;100691.34;5068107;28;20024;-20
2021/11/12 15:01:01;;;;;;;17.50;11.05;;;;;;;13.52;51.85;100670.28;5068451;28;20037;-20
2021/11/12 15:03:26;;;;;;;19.73;12.05;;;;;;;13.32;52.68;100691.94;5068292;28;20031;-20
2021/11/12 15:05:53;;;;;;;21.52;12.50;;;;;;;13.72;51.63;100683.44;5068122;28;20037;-20
2021/11/12 15:08:21;;;;;;;21.17;13.68;;;;;;;13.64;51.75;100687.25;5050073;28;20024;-20
2021/11/12 15:10:47;;;;;;;23.25;15.15;;;;;;;13.32;52.17;100680.38;5068355;28;20036;-20
2021/11/12 15:13:14;;;;;;;23.48;16.30;;;;;;;13.27;52.47;100697.91;5067832;28;20527;-20
2021/11/12 15:15:40;;;;;;;20.42;14.52;;;;;;;12.63;54.22;100689.19;5068281;28;20037;-20
2021/11/12 15:18:07;;;;;;;21.80;14.40;;;;;;;12.22;56.05;100687.00;5068428;28;20036;-20
2021/11/12 15:20:34;;;;;;;30.85;15.77;;;;;;;11.88;57.06;100691.66;5074962;28;20119;-21
2021/11/12 15:31:20;;;;;;;19.30;11.82;;;;;;;10.34;62.76;100712.31;5074689;28;20044;-21
2021/11/12 15:33:49;;;;;;;16.17;10.82;;;;;;;10.33;62.57;100700.00;5074604;28;20033;-20
2021/11/12 15:36:16;;;;;;;18.60;11.85;;;;;;;10.52;62.29;100713.56;5074360;28;20033;-21
2021/11/12 15:38:51;;;;;;;19.08;11.85;;;;;;;10.46;62.31;100720.53;5074730;28;20073;-20
2021/11/12 15:44:11;;;;;;;22.17;14.38;;;;;;;10.18;62.76;100700.13;5074384;28;20034;-20
2021/11/12 15:46:42;;;;;;;19.52;13.30;;;;;;;10.16;62.85;100704.84;5074449;28;20408;-21
2021/11/12 15:49:08;;;;;;;22.90;13.20;;;;;;;9.95;63.73;100713.78;5074404;28;20033;-21
2021/11/12 15:51:39;;;;;;;19.98;11.45;;;;;;;9.65;64.43;100703.41;5074413;28;20043;-20
2021/11/12 15:54:20;;;;;;;21.02;12.65;;;;;;;9.54;64.92;100719.94;5074588;28;20033;-20
2021/11/12 15:57:17;;;;;;;22.42;12.32;;;;;;;9.41;65.10;100725.16;5074083;28;20024;-20
2021/11/12 16:18:50;;;;;;;24.65;12.43;;;;;;;10.17;63.94;100738.47;5074212;28;20778;-20
2021/11/12 16:22:11;;;;;;;18.15;10.88;;;;;;;10.35;62.80;100723.78;5074077;28;20550;-21
2021/11/12 16:26:34;;;;;;;17.30;10.43;;;;;;;9.88;63.86;100736.91;5074150;28;20047;-22
2021/11/12 16:31:28;;;;;;;18.90;10.93;;;;;;;10.18;64.65;100733.97;5070798;28;20066;-21
2021/11/12 16:33:54;;;;;;;23.60;15.18;;;;;;;10.35;63.34;100735.28;5070704;28;20047;-20
2021/11/12 16:36:20;;;;;;;29.88;18.58;;;;;;;9.75;64.29;100748.31;5069534;28;20028;-21
2021/11/12 16:38:46;;;;;;;49.00;29.40;;;;;;;10.25;64.79;100761.47;5070625;28;20032;-21
2021/11/12 16:41:22;;;;;;;66.25;37.08;;;;;;;10.13;61.99;100758.53;5070751;28;20036;-21
2021/11/12 16:52:07;;;;;;;;;;;;;;;10.52;61.40;100757.09;5071362;28;20037;-20
2021/11/12 16:54:12;;;;;;;79.70;48.58;;;;;;;10.43;60.85;100739.59;5059458;28;19908;-20